createdAt,value
2022-12-13T00:01:33.818Z,-4.82
2022-12-13T00:04:02.914Z,-4.86
2022-12-13T00:06:30.594Z,-4.85
2022-12-13T00:08:58.213Z,-4.84
2022-12-13T00:11:25.143Z,-4.84
2022-12-13T00:13:51.680Z,-4.80
2022-12-13T00:16:22.707Z,-4.73
2022-12-13T00:18:51.425Z,-4.73
2022-12-13T00:21:20.054Z,-4.76
2022-12-13T00:23:47.444Z,-4.66
2022-12-13T00:26:19.864Z,-4.64
2022-12-13T00:28:49.392Z,-4.59
2022-12-13T00:34:06.484Z,-4.53
2022-12-13T00:36:33.011Z,-4.51
2022-12-13T00:39:02.486Z,-4.53
2022-12-13T00:41:32.173Z,-4.46
2022-12-13T00:43:59.396Z,-4.45
2022-12-13T00:46:26.704Z,-4.46
2022-12-13T00:48:55.952Z,-4.46
2022-12-13T00:51:23.745Z,-4.50
2022-12-13T00:53:50.333Z,-4.56
2022-12-13T00:56:21.330Z,-4.53
2022-12-13T00:58:52.084Z,-4.55
2022-12-13T01:01:22.152Z,-4.56
2022-12-13T01:03:48.747Z,-4.58
2022-12-13T01:06:18.699Z,-4.59
2022-12-13T01:08:45.369Z,-4.57
2022-12-13T01:11:12.977Z,-4.68
2022-12-13T01:13:39.856Z,-4.69
2022-12-13T01:16:09.007Z,-4.69
2022-12-13T01:18:36.032Z,-4.62
2022-12-13T01:21:09.865Z,-4.59
2022-12-13T01:23:36.405Z,-4.60
2022-12-13T01:26:05.051Z,-4.56
2022-12-13T01:28:32.194Z,-4.51
2022-12-13T01:31:05.760Z,-4.50
2022-12-13T01:33:33.232Z,-4.44
2022-12-13T01:36:05.651Z,-4.41
2022-12-13T01:38:32.412Z,-4.41
2022-12-13T01:41:16.877Z,-4.32
2022-12-13T01:43:44.562Z,-4.28
2022-12-13T01:46:12.111Z,-4.20
2022-12-13T01:48:44.607Z,-4.16
2022-12-13T01:51:14.390Z,-4.10
2022-12-13T01:53:43.667Z,-4.03
2022-12-13T01:56:17.977Z,-4.02
2022-12-13T01:58:47.244Z,-3.96
2022-12-13T02:01:13.811Z,-3.91
2022-12-13T02:03:40.377Z,-3.89
2022-12-13T02:06:12.883Z,-3.83
2022-12-13T02:08:42.663Z,-3.88
2022-12-13T02:11:10.032Z,-3.81
2022-12-13T02:13:37.795Z,-3.78
2022-12-13T02:16:22.025Z,-3.73
2022-12-13T02:18:54.950Z,-3.69
2022-12-13T02:21:30.829Z,-3.66
2022-12-13T02:24:16.156Z,-3.63
2022-12-13T02:26:58.534Z,-3.55
2022-12-13T02:29:55.946Z,-3.48
2022-12-13T02:32:39.719Z,-3.42
2022-12-13T02:35:11.988Z,-3.36
2022-12-13T02:38:07.249Z,-3.28
2022-12-13T02:40:40.236Z,-3.20
2022-12-13T02:43:23.627Z,-3.15
2022-12-13T02:45:54.590Z,-3.10
2022-12-13T02:48:28.615Z,-2.97
2022-12-13T02:50:56.748Z,-2.90
2022-12-13T02:53:24.403Z,-2.88
2022-12-13T02:55:50.840Z,-2.80
2022-12-13T02:58:23.154Z,-2.74
2022-12-13T03:00:58.508Z,-2.70
2022-12-13T03:03:33.979Z,-2.68
2022-12-13T03:06:34.949Z,-2.64
2022-12-13T03:09:24.437Z,-2.62
2022-12-13T03:12:42.841Z,-2.59
2022-12-13T03:15:29.285Z,-2.59
2022-12-13T03:18:01.062Z,-2.58
2022-12-13T03:20:29.291Z,-2.58
2022-12-13T03:22:56.733Z,-2.51
2022-12-13T03:25:31.560Z,-2.50
2022-12-13T03:28:01.098Z,-2.48
2022-12-13T03:30:29.497Z,-2.41
2022-12-13T03:32:55.895Z,-2.36
2022-12-13T03:35:22.893Z,-2.30
2022-12-13T03:37:50.071Z,-2.25
2022-12-13T03:40:18.281Z,-2.20
2022-12-13T03:42:44.798Z,-2.24
2022-12-13T03:45:11.303Z,-2.23
2022-12-13T03:47:37.698Z,-2.21
2022-12-13T03:50:25.375Z,-2.21
2022-12-13T03:52:51.934Z,-2.30
2022-12-13T03:55:19.095Z,-2.30
2022-12-13T03:57:45.543Z,-2.35
2022-12-13T04:00:13.083Z,-2.42
2022-12-13T04:02:39.729Z,-2.47
2022-12-13T04:05:06.477Z,-2.53
2022-12-13T04:07:34.053Z,-2.59
2022-12-13T04:10:01.291Z,-2.68
2022-12-13T04:12:48.485Z,-2.64
2022-12-13T04:15:15.986Z,-2.64
2022-12-13T04:17:42.716Z,-2.60
2022-12-13T04:20:09.962Z,-2.63
2022-12-13T04:22:36.393Z,-2.58
2022-12-13T04:25:04.284Z,-2.58
2022-12-13T04:27:30.853Z,-2.52
2022-12-13T04:29:57.509Z,-2.51
2022-12-13T04:32:26.070Z,-2.41
2022-12-13T04:35:00.971Z,-2.30
2022-12-13T04:37:38.610Z,-2.25
2022-12-13T04:40:10.957Z,-2.20
2022-12-13T04:42:37.909Z,-2.12
2022-12-13T04:45:04.927Z,-2.10
2022-12-13T04:47:31.324Z,-2.04
2022-12-13T04:49:57.831Z,-1.97
2022-12-13T04:52:24.344Z,-1.91
2022-12-13T04:54:55.818Z,-1.88
2022-12-13T04:57:23.142Z,-1.81
2022-12-13T04:59:49.889Z,-1.72
2022-12-13T05:02:24.175Z,-1.66
2022-12-13T05:04:53.918Z,-1.58
2022-12-13T05:07:21.482Z,-1.47
2022-12-13T05:09:47.963Z,-1.51
2022-12-13T05:12:23.098Z,-1.49
2022-12-13T05:14:51.596Z,-1.40
2022-12-13T05:17:18.178Z,-1.36
2022-12-13T05:19:44.793Z,-1.33
2022-12-13T05:22:19.896Z,-1.26
2022-12-13T05:24:48.139Z,-1.22
2022-12-13T05:27:23.845Z,-1.17
2022-12-13T05:30:02.075Z,-1.15
2022-12-13T05:32:43.895Z,-1.11
2022-12-13T05:35:21.817Z,-1.02
2022-12-13T05:37:54.262Z,-1.06
2022-12-13T05:40:22.812Z,-1.01
2022-12-13T05:42:49.208Z,-0.94
2022-12-13T05:45:18.274Z,-0.90
2022-12-13T05:47:45.677Z,-0.92
2022-12-13T05:50:13.422Z,-0.92
2022-12-13T05:52:40.061Z,-0.90
2022-12-13T05:55:06.832Z,-0.82
2022-12-13T05:57:34.015Z,-0.82
2022-12-13T06:00:00.911Z,-0.77
2022-12-13T06:02:27.876Z,-0.76
2022-12-13T06:04:54.492Z,-0.75
2022-12-13T06:07:20.970Z,-0.78
2022-12-13T06:09:47.462Z,-0.80
2022-12-13T06:12:32.556Z,-0.73
2022-12-13T06:15:01.089Z,-0.77
2022-12-13T06:17:37.622Z,-0.70
2022-12-13T06:20:22.960Z,-0.72
2022-12-13T06:22:50.625Z,-0.74
2022-12-13T06:25:31.132Z,-0.80
2022-12-13T06:27:59.030Z,-0.78
2022-12-13T06:30:28.293Z,-0.86
2022-12-13T06:32:55.135Z,-0.86
2022-12-13T06:35:28.787Z,-0.92
2022-12-13T06:38:01.736Z,-0.90
2022-12-13T06:40:30.340Z,-0.93
2022-12-13T06:42:57.149Z,-0.99
2022-12-13T06:45:23.977Z,-0.99
2022-12-13T06:47:50.526Z,-0.98
2022-12-13T06:50:17.091Z,-1.04
2022-12-13T06:52:46.508Z,-1.00
2022-12-13T06:55:13.488Z,-0.98
2022-12-13T06:57:40.753Z,-1.04
2022-12-13T07:00:09.229Z,-0.99
2022-12-13T07:02:36.083Z,-0.98
2022-12-13T07:05:02.756Z,-1.07
2022-12-13T07:07:29.670Z,-0.98
2022-12-13T07:09:56.353Z,-0.88
2022-12-13T07:12:23.618Z,-0.84
2022-12-13T07:14:50.345Z,-0.85
2022-12-13T07:17:32.448Z,-0.83
2022-12-13T07:20:01.536Z,-0.74
2022-12-13T07:22:28.334Z,-0.72
2022-12-13T07:24:54.738Z,-0.77
2022-12-13T07:27:21.197Z,-0.66
2022-12-13T07:29:47.595Z,-0.70
2022-12-13T07:32:14.061Z,-0.69
2022-12-13T07:34:40.580Z,-0.63
2022-12-13T07:37:09.249Z,-0.56
2022-12-13T07:40:01.067Z,-0.53
2022-12-13T07:42:29.666Z,-0.56
2022-12-13T07:44:56.048Z,-0.50
2022-12-13T07:47:23.358Z,-0.49
2022-12-13T07:49:49.794Z,-0.42
2022-12-13T07:52:16.193Z,-0.46
2022-12-13T07:54:42.710Z,-0.47
2022-12-13T07:57:09.187Z,-0.32
2022-12-13T07:59:35.554Z,-0.36
2022-12-13T08:02:02.250Z,-0.33
2022-12-13T08:04:29.333Z,-0.29
2022-12-13T08:06:55.969Z,-0.29
2022-12-13T08:09:22.562Z,-0.22
2022-12-13T08:11:49.626Z,-0.23
2022-12-13T08:14:15.990Z,-0.22
2022-12-13T08:16:42.598Z,-0.14
2022-12-13T08:19:10.194Z,-0.13
2022-12-13T08:21:54.645Z,-0.08
2022-12-13T08:24:31.626Z,-0.01
2022-12-13T08:27:03.294Z,0.03
2022-12-13T08:29:35.962Z,0.09
2022-12-13T08:32:08.555Z,0.13
2022-12-13T08:34:35.449Z,0.16
2022-12-13T08:37:03.850Z,0.18
2022-12-13T08:39:35.379Z,0.25
2022-12-13T08:42:19.327Z,0.23
2022-12-13T08:44:51.244Z,0.25
2022-12-13T08:47:25.504Z,0.31
2022-12-13T08:49:54.524Z,0.31
2022-12-13T08:52:22.891Z,0.28
2022-12-13T08:54:49.609Z,0.35
2022-12-13T08:57:16.043Z,0.40
2022-12-13T08:59:42.564Z,0.38
2022-12-13T09:02:13.993Z,0.44
2022-12-13T09:04:40.655Z,0.41
2022-12-13T09:07:08.043Z,0.41
2022-12-13T09:09:34.557Z,0.38
2022-12-13T09:12:03.709Z,0.39
2022-12-13T09:14:45.500Z,0.38
2022-12-13T09:17:24.079Z,0.49
2022-12-13T09:19:51.793Z,0.57
2022-12-13T09:22:33.829Z,0.61
2022-12-13T09:25:04.624Z,0.66
2022-12-13T09:27:39.543Z,0.71
2022-12-13T09:30:08.090Z,0.76
2022-12-13T09:32:34.472Z,0.79
2022-12-13T09:35:00.841Z,0.85
2022-12-13T09:37:27.575Z,0.86
2022-12-13T09:39:55.526Z,0.87
2022-12-13T09:42:30.697Z,1.00
2022-12-13T09:45:06.565Z,1.03
2022-12-13T09:47:52.689Z,1.03
2022-12-13T09:50:29.544Z,1.05
2022-12-13T09:53:11.948Z,1.11
2022-12-13T09:55:42.815Z,1.14
2022-12-13T09:58:17.820Z,1.05
2022-12-13T10:00:47.203Z,1.20
2022-12-13T10:03:16.014Z,1.22
2022-12-13T10:05:46.081Z,1.22
2022-12-13T10:08:16.474Z,1.21
2022-12-13T10:10:43.817Z,1.12
2022-12-13T10:13:21.181Z,1.24
2022-12-13T10:15:54.835Z,1.26
2022-12-13T10:18:38.802Z,1.33
2022-12-13T10:21:11.613Z,1.35
2022-12-13T10:24:07.411Z,1.34
2022-12-13T10:26:25.143Z,1.37
2022-12-13T10:29:02.241Z,1.40
2022-12-13T10:31:28.965Z,1.41
2022-12-13T10:33:57.352Z,1.46
2022-12-13T10:36:38.914Z,1.57
2022-12-13T10:39:05.423Z,1.58
2022-12-13T10:41:37.800Z,1.65
2022-12-13T10:44:25.136Z,1.71
2022-12-13T10:47:04.377Z,1.71
2022-12-13T10:49:59.529Z,1.74
2022-12-13T10:52:43.134Z,1.66
2022-12-13T10:55:28.718Z,1.72
2022-12-13T10:58:01.300Z,1.74
2022-12-13T11:00:35.368Z,1.72
2022-12-13T11:03:02.040Z,1.75
2022-12-13T11:05:30.849Z,1.73
2022-12-13T11:08:13.404Z,1.76
2022-12-13T11:10:40.105Z,1.72
2022-12-13T11:13:07.702Z,1.80
2022-12-13T11:15:38.298Z,1.85
2022-12-13T11:18:08.464Z,1.74
2022-12-13T11:20:36.727Z,2.00
2022-12-13T11:23:19.562Z,1.94
2022-12-13T11:25:46.347Z,1.97
2022-12-13T11:28:26.765Z,2.08
2022-12-13T11:31:27.977Z,2.16
2022-12-13T11:34:16.320Z,2.23
2022-12-13T11:36:56.649Z,2.21
2022-12-13T11:39:37.023Z,2.24
2022-12-13T11:42:33.933Z,2.29
2022-12-13T11:45:13.409Z,2.33
2022-12-13T11:48:05.440Z,2.39
2022-12-13T11:50:39.969Z,2.35
2022-12-13T11:53:12.317Z,2.40
2022-12-13T11:55:47.393Z,2.38
2022-12-13T11:58:53.939Z,2.45
2022-12-13T12:01:14.990Z,2.42
2022-12-13T12:04:18.059Z,2.43
2022-12-13T12:06:54.472Z,2.42
2022-12-13T12:09:24.188Z,2.40
2022-12-13T12:12:02.875Z,2.42
2022-12-13T12:14:44.178Z,2.37
2022-12-13T12:17:16.035Z,2.39
2022-12-13T12:19:46.664Z,2.31
2022-12-13T12:22:31.699Z,2.35
2022-12-13T12:25:21.317Z,2.30
2022-12-13T12:28:03.421Z,2.34
2022-12-13T12:30:39.021Z,2.32
2022-12-13T12:33:23.615Z,2.32
2022-12-13T12:36:12.964Z,2.38
2022-12-13T12:38:48.188Z,2.38
2022-12-13T12:41:45.634Z,2.44
2022-12-13T12:44:42.273Z,2.48
2022-12-13T12:48:58.572Z,2.46
2022-12-13T12:50:43.008Z,2.59
2022-12-13T12:53:28.488Z,2.66
2022-12-13T12:56:10.254Z,2.72
2022-12-13T12:58:49.876Z,2.74
2022-12-13T13:01:51.786Z,2.85
2022-12-13T13:04:22.304Z,2.92
2022-12-13T13:07:03.979Z,2.82
2022-12-13T13:09:31.688Z,2.81
2022-12-13T13:12:02.345Z,2.73
2022-12-13T13:14:48.738Z,2.74
2022-12-13T13:17:24.196Z,2.76
2022-12-13T13:20:09.798Z,2.72
2022-12-13T13:22:42.835Z,2.65
2022-12-13T13:25:32.037Z,2.63
2022-12-13T13:28:24.713Z,2.61
2022-12-13T13:31:09.154Z,2.59
2022-12-13T13:33:43.899Z,2.51
2022-12-13T13:36:38.946Z,2.54
2022-12-13T13:39:05.728Z,2.38
2022-12-13T13:41:54.999Z,2.38
2022-12-13T13:44:51.372Z,2.43
2022-12-13T13:47:20.661Z,2.38
2022-12-13T13:50:07.900Z,2.36
2022-12-13T13:52:53.935Z,2.39
2022-12-13T13:55:48.367Z,2.39
2022-12-13T13:58:34.336Z,2.37
2022-12-13T14:01:43.035Z,2.33
2022-12-13T14:04:34.080Z,2.35
2022-12-13T14:07:27.125Z,2.28
2022-12-13T14:10:06.792Z,2.30
2022-12-13T14:12:55.857Z,2.29
2022-12-13T14:15:57.683Z,2.28
2022-12-13T14:18:42.589Z,2.26
2022-12-13T14:21:28.896Z,2.18
2022-12-13T14:24:01.173Z,2.17
2022-12-13T14:26:53.928Z,2.18
2022-12-13T14:29:28.101Z,2.11
2022-12-13T14:31:55.368Z,2.07
2022-12-13T14:34:32.411Z,2.09
2022-12-13T14:37:04.682Z,2.08
2022-12-13T14:39:34.566Z,2.08
2022-12-13T14:42:20.270Z,2.12
2022-12-13T14:44:46.671Z,2.05
2022-12-13T14:47:14.762Z,2.10
2022-12-13T14:49:48.598Z,2.06
2022-12-13T14:52:26.185Z,2.02
2022-12-13T14:54:58.677Z,1.89
2022-12-13T14:57:28.770Z,1.84
2022-12-13T14:59:57.154Z,1.73
2022-12-13T15:02:32.030Z,1.67
2022-12-13T15:05:04.397Z,1.61
2022-12-13T15:07:37.029Z,1.52
2022-12-13T15:10:18.291Z,1.40
2022-12-13T15:12:46.018Z,1.32
2022-12-13T15:15:35.852Z,1.28
2022-12-13T15:18:18.669Z,1.13
2022-12-13T15:20:46.867Z,1.05
2022-12-13T15:23:40.253Z,0.94
2022-12-13T15:26:28.313Z,0.85
2022-12-13T15:29:10.365Z,0.77
2022-12-13T15:31:38.522Z,0.72
2022-12-13T15:34:30.968Z,0.65
2022-12-13T15:37:28.069Z,0.58
2022-12-13T15:40:00.794Z,0.45
2022-12-13T15:42:38.806Z,0.41
2022-12-13T15:45:16.209Z,0.37
2022-12-13T15:47:46.618Z,0.34
2022-12-13T15:50:34.320Z,0.28
2022-12-13T15:53:04.489Z,0.20
2022-12-13T15:55:37.664Z,0.21
2022-12-13T15:58:32.059Z,0.15
2022-12-13T16:01:05.045Z,0.04
2022-12-13T16:03:49.925Z,0.04
2022-12-13T16:06:23.663Z,0.00
2022-12-13T16:08:56.851Z,-0.06
2022-12-13T16:11:29.478Z,-0.13
2022-12-13T16:14:27.700Z,-0.15
2022-12-13T16:16:55.730Z,-0.20
2022-12-13T16:19:22.677Z,-0.26
2022-12-13T16:21:49.673Z,-0.28
2022-12-13T16:24:16.056Z,-0.32
2022-12-13T16:26:47.396Z,-0.38
2022-12-13T16:29:21.700Z,-0.43
2022-12-13T16:31:48.571Z,-0.51
2022-12-13T16:34:18.295Z,-0.46
2022-12-13T16:36:47.880Z,-0.52
2022-12-13T16:39:15.029Z,-0.54
2022-12-13T16:41:44.827Z,-0.55
2022-12-13T16:44:39.491Z,-0.55
2022-12-13T16:47:13.269Z,-0.56
2022-12-13T16:49:46.822Z,-0.57
2022-12-13T16:52:13.236Z,-0.51
2022-12-13T16:54:39.632Z,-0.51
2022-12-13T16:57:06.108Z,-0.44
2022-12-13T16:59:32.638Z,-0.49
2022-12-13T17:01:59.226Z,-0.40
2022-12-13T17:04:27.435Z,-0.40
2022-12-13T17:06:54.867Z,-0.37
2022-12-13T17:09:23.069Z,-0.34
2022-12-13T17:11:49.551Z,-0.38
2022-12-13T17:14:16.004Z,-0.32
2022-12-13T17:16:42.601Z,-0.33
2022-12-13T17:19:10.824Z,-0.32
2022-12-13T17:21:37.685Z,-0.33
2022-12-13T17:24:04.392Z,-0.26
2022-12-13T17:26:31.167Z,-0.27
2022-12-13T17:28:57.770Z,-0.23
2022-12-13T17:31:25.327Z,-0.27
2022-12-13T17:33:56.733Z,-0.24
2022-12-13T17:36:23.188Z,-0.26
2022-12-13T17:38:49.681Z,-0.22
2022-12-13T17:41:16.650Z,-0.33
2022-12-13T17:43:43.882Z,-0.31
2022-12-13T17:46:16.085Z,-0.31
2022-12-13T17:48:45.368Z,-0.33
2022-12-13T17:51:13.404Z,-0.28
2022-12-13T17:53:41.569Z,-0.37
2022-12-13T17:56:11.888Z,-0.36
2022-12-13T17:58:38.744Z,-0.39
2022-12-13T18:01:13.414Z,-0.32
2022-12-13T18:03:39.849Z,-0.34
2022-12-13T18:06:09.722Z,-0.35
2022-12-13T18:08:38.854Z,-0.32
2022-12-13T18:11:31.833Z,-0.30
2022-12-13T18:13:55.546Z,-0.32
2022-12-13T18:16:24.401Z,-0.43
2022-12-13T18:18:55.179Z,-0.31
2022-12-13T18:21:22.725Z,-0.31
2022-12-13T18:23:55.693Z,-0.30
2022-12-13T18:26:23.438Z,-0.37
2022-12-13T18:28:50.024Z,-0.36
2022-12-13T18:31:19.489Z,-0.37
2022-12-13T18:33:47.763Z,-0.41
2022-12-13T18:36:16.232Z,-0.46
2022-12-13T18:38:43.435Z,-0.51
2022-12-13T18:41:14.654Z,-0.52
2022-12-13T18:43:42.826Z,-0.54
2022-12-13T18:46:11.152Z,-0.58
2022-12-13T18:48:38.294Z,-0.62
2022-12-13T18:51:07.658Z,-0.70
2022-12-13T18:53:35.249Z,-0.75
2022-12-13T18:56:10.464Z,-0.82
2022-12-13T18:58:41.249Z,-0.87
2022-12-13T19:01:09.666Z,-0.94
2022-12-13T19:03:38.933Z,-0.91
2022-12-13T19:06:06.867Z,-0.97
2022-12-13T19:08:34.006Z,-0.98
2022-12-13T19:11:02.029Z,-1.00
2022-12-13T19:13:29.802Z,-1.06
2022-12-13T19:15:58.365Z,-1.09
2022-12-13T19:18:24.999Z,-1.15
2022-12-13T19:20:53.587Z,-1.19
2022-12-13T19:23:20.727Z,-1.20
2022-12-13T19:25:48.776Z,-1.31
2022-12-13T19:28:17.387Z,-1.32
2022-12-13T19:30:46.044Z,-1.30
2022-12-13T19:33:13.459Z,-1.30
2022-12-13T19:35:42.479Z,-1.37
2022-12-13T19:38:09.940Z,-1.40
2022-12-13T19:40:39.590Z,-1.37
2022-12-13T19:43:06.064Z,-1.43
2022-12-13T19:45:32.640Z,-1.38
2022-12-13T19:47:59.098Z,-1.46
2022-12-13T19:50:25.534Z,-1.46
2022-12-13T19:52:51.972Z,-1.48
2022-12-13T19:55:18.495Z,-1.48
2022-12-13T19:57:44.897Z,-1.50
2022-12-13T20:00:12.029Z,-1.62
2022-12-13T20:02:38.641Z,-1.60
2022-12-13T20:05:05.782Z,-1.63
2022-12-13T20:07:32.214Z,-1.65
2022-12-13T20:09:58.622Z,-1.61
2022-12-13T20:12:25.350Z,-1.68
2022-12-13T20:14:51.797Z,-1.69
2022-12-13T20:17:18.182Z,-1.71
2022-12-13T20:19:44.610Z,-1.69
2022-12-13T20:22:11.098Z,-1.72
2022-12-13T20:24:37.770Z,-1.79
2022-12-13T20:27:04.195Z,-1.82
2022-12-13T20:29:30.868Z,-1.83
2022-12-13T20:31:57.351Z,-1.83
2022-12-13T20:34:23.780Z,-1.80
2022-12-13T20:36:50.323Z,-1.90
2022-12-13T20:39:16.735Z,-1.85
2022-12-13T20:41:43.230Z,-1.86
2022-12-13T20:44:12.100Z,-1.89
2022-12-13T20:46:38.992Z,-1.85
2022-12-13T20:49:07.270Z,-1.90
2022-12-13T20:51:35.444Z,-1.89
2022-12-13T20:54:02.600Z,-1.94
2022-12-13T20:56:34.232Z,-1.92
2022-12-13T20:59:05.570Z,-1.93
2022-12-13T21:01:35.073Z,-1.99
2022-12-13T21:04:04.846Z,-1.98
2022-12-13T21:06:33.794Z,-2.00
2022-12-13T21:09:02.700Z,-2.02
2022-12-13T21:11:35.187Z,-2.11
2022-12-13T21:14:24.627Z,-2.08
2022-12-13T21:17:01.960Z,-2.10
2022-12-13T21:19:37.489Z,-2.10
2022-12-13T21:22:06.626Z,-2.13
2022-12-13T21:24:33.084Z,-2.19
2022-12-13T21:26:59.862Z,-2.18
2022-12-13T21:29:26.259Z,-2.18
2022-12-13T21:31:53.357Z,-2.25
2022-12-13T21:34:21.503Z,-2.18
2022-12-13T21:36:50.032Z,-2.16
2022-12-13T21:39:22.743Z,-2.18
2022-12-13T21:41:49.575Z,-2.21
2022-12-13T21:44:17.120Z,-2.22
2022-12-13T21:49:30.398Z,-2.34
2022-12-13T21:51:57.068Z,-2.36
2022-12-13T21:54:23.445Z,-2.40
2022-12-13T21:57:08.814Z,-2.38
2022-12-13T21:59:38.714Z,-2.47
2022-12-13T22:02:16.530Z,-2.47
2022-12-13T22:04:54.937Z,-2.51
2022-12-13T22:07:23.758Z,-2.60
2022-12-13T22:09:51.228Z,-2.69
2022-12-13T22:12:35.108Z,-2.73
2022-12-13T22:15:02.077Z,-2.80
2022-12-13T22:17:35.087Z,-2.89
2022-12-13T22:20:07.568Z,-2.97
2022-12-13T22:22:34.622Z,-3.05
2022-12-13T22:25:01.104Z,-3.11
2022-12-13T22:27:27.502Z,-3.16
2022-12-13T22:29:57.471Z,-3.20
2022-12-13T22:32:26.296Z,-3.26
2022-12-13T22:34:52.904Z,-3.31
2022-12-13T22:37:19.336Z,-3.38
2022-12-13T22:39:46.048Z,-3.43
2022-12-13T22:42:12.549Z,-3.56
2022-12-13T22:44:39.048Z,-3.58
2022-12-13T22:47:06.596Z,-3.56
2022-12-13T22:49:33.201Z,-3.62
2022-12-13T22:51:59.640Z,-3.64
2022-12-13T22:54:26.049Z,-3.65
2022-12-13T22:56:53.737Z,-3.68
2022-12-13T22:59:20.132Z,-3.75
2022-12-13T23:01:47.044Z,-3.75
2022-12-13T23:04:14.466Z,-3.78
2022-12-13T23:06:41.187Z,-3.74
2022-12-13T23:09:11.934Z,-3.80
2022-12-13T23:11:57.304Z,-3.84
2022-12-13T23:14:33.928Z,-3.74
2022-12-13T23:17:01.290Z,-3.76
2022-12-13T23:19:48.811Z,-3.83
2022-12-13T23:22:15.385Z,-3.83
2022-12-13T23:24:42.094Z,-3.95
2022-12-13T23:27:08.502Z,-3.91
2022-12-13T23:29:35.117Z,-3.96
2022-12-13T23:32:01.575Z,-4.02
2022-12-13T23:34:28.098Z,-4.03
2022-12-13T23:36:54.515Z,-4.06
2022-12-13T23:39:20.890Z,-4.10
2022-12-13T23:41:47.322Z,-4.11
2022-12-13T23:44:13.872Z,-4.09
2022-12-13T23:46:40.338Z,-4.13
2022-12-13T23:49:08.633Z,-4.13
2022-12-13T23:51:37.757Z,-4.13
2022-12-13T23:54:05.970Z,-4.19
2022-12-13T23:56:32.408Z,-4.17
2022-12-13T23:58:58.868Z,-4.17
